sensor_id;sensor_type;location;lat;lon;timestamp;P1;durP1;ratioP1;P2;durP2;ratioP2
76336;SDS011;65157;50.082;18.178;2024-03-25T00:01:13;2.80;;;2.70;;
76336;SDS011;65157;50.082;18.178;2024-03-25T00:03:40;4.30;;;3.90;;
76336;SDS011;65157;50.082;18.178;2024-03-25T00:06:06;4.10;;;3.80;;
76336;SDS011;65157;50.082;18.178;2024-03-25T00:08:33;4.00;;;3.60;;
76336;SDS011;65157;50.082;18.178;2024-03-25T00:10:59;3.60;;;3.20;;
76336;SDS011;65157;50.082;18.178;2024-03-25T00:13:26;3.80;;;3.50;;
76336;SDS011;65157;50.082;18.178;2024-03-25T00:15:52;3.20;;;3.00;;
76336;SDS011;65157;50.082;18.178;2024-03-25T00:18:19;2.70;;;2.40;;
76336;SDS011;65157;50.082;18.178;2024-03-25T00:20:45;3.00;;;2.70;;
76336;SDS011;65157;50.082;18.178;2024-03-25T00:23:12;2.60;;;2.40;;
76336;SDS011;65157;50.082;18.178;2024-03-25T00:25:38;4.50;;;4.10;;
76336;SDS011;65157;50.082;18.178;2024-03-25T00:28:06;2.80;;;2.60;;
76336;SDS011;65157;50.082;18.178;2024-03-25T00:30:32;3.70;;;3.40;;
76336;SDS011;65157;50.082;18.178;2024-03-25T00:32:59;3.70;;;3.50;;
76336;SDS011;65157;50.082;18.178;2024-03-25T00:35:26;2.30;;;2.10;;
76336;SDS011;65157;50.082;18.178;2024-03-25T00:37:52;3.80;;;3.50;;
76336;SDS011;65157;50.082;18.178;2024-03-25T00:40:18;4.20;;;3.90;;
76336;SDS011;65157;50.082;18.178;2024-03-25T00:42:45;3.70;;;3.40;;
76336;SDS011;65157;50.082;18.178;2024-03-25T00:45:11;4.60;;;4.30;;
76336;SDS011;65157;50.082;18.178;2024-03-25T00:47:38;4.00;;;3.70;;
76336;SDS011;65157;50.082;18.178;2024-03-25T00:50:05;3.30;;;3.10;;
76336;SDS011;65157;50.082;18.178;2024-03-25T00:52:32;3.30;;;3.10;;
76336;SDS011;65157;50.082;18.178;2024-03-25T00:54:58;3.20;;;2.90;;
76336;SDS011;65157;50.082;18.178;2024-03-25T00:57:25;3.00;;;2.80;;
76336;SDS011;65157;50.082;18.178;2024-03-25T00:59:51;3.00;;;2.70;;
76336;SDS011;65157;50.082;18.178;2024-03-25T01:02:17;3.10;;;2.80;;
76336;SDS011;65157;50.082;18.178;2024-03-25T01:04:44;4.30;;;3.90;;
76336;SDS011;65157;50.082;18.178;2024-03-25T01:07:12;2.30;;;2.20;;
76336;SDS011;65157;50.082;18.178;2024-03-25T01:09:38;3.10;;;2.90;;
76336;SDS011;65157;50.082;18.178;2024-03-25T01:12:05;3.40;;;3.20;;
76336;SDS011;65157;50.082;18.178;2024-03-25T01:14:31;3.80;;;3.60;;
76336;SDS011;65157;50.082;18.178;2024-03-25T01:16:58;2.10;;;1.90;;
76336;SDS011;65157;50.082;18.178;2024-03-25T01:19:24;3.20;;;3.00;;
76336;SDS011;65157;50.082;18.178;2024-03-25T01:21:51;2.50;;;2.30;;
76336;SDS011;65157;50.082;18.178;2024-03-25T01:24:17;2.60;;;2.40;;
76336;SDS011;65157;50.082;18.178;2024-03-25T01:26:44;2.60;;;2.40;;
76336;SDS011;65157;50.082;18.178;2024-03-25T01:29:10;2.30;;;1.90;;
76336;SDS011;65157;50.082;18.178;2024-03-25T01:31:36;2.50;;;2.30;;
76336;SDS011;65157;50.082;18.178;2024-03-25T01:34:03;2.70;;;2.50;;
76336;SDS011;65157;50.082;18.178;2024-03-25T01:36:32;2.50;;;2.30;;
76336;SDS011;65157;50.082;18.178;2024-03-25T01:38:58;2.40;;;2.20;;
76336;SDS011;65157;50.082;18.178;2024-03-25T01:41:25;2.90;;;2.50;;
76336;SDS011;65157;50.082;18.178;2024-03-25T01:43:52;2.90;;;2.70;;
76336;SDS011;65157;50.082;18.178;2024-03-25T01:46:19;3.70;;;3.40;;
76336;SDS011;65157;50.082;18.178;2024-03-25T01:48:46;2.70;;;2.50;;
76336;SDS011;65157;50.082;18.178;2024-03-25T01:53:42;2.60;;;2.40;;
76336;SDS011;65157;50.082;18.178;2024-03-25T01:56:10;2.90;;;2.60;;
76336;SDS011;65157;50.082;18.178;2024-03-25T01:58:39;2.70;;;2.50;;
76336;SDS011;65157;50.082;18.178;2024-03-25T02:01:06;2.30;;;2.10;;
76336;SDS011;65157;50.082;18.178;2024-03-25T02:06:04;2.20;;;2.00;;
76336;SDS011;65157;50.082;18.178;2024-03-25T02:08:37;4.10;;;2.80;;
76336;SDS011;65157;50.082;18.178;2024-03-25T02:13:31;3.70;;;3.20;;
76336;SDS011;65157;50.082;18.178;2024-03-25T02:15:58;2.40;;;2.00;;
76336;SDS011;65157;50.082;18.178;2024-03-25T02:18:24;2.70;;;2.50;;
76336;SDS011;65157;50.082;18.178;2024-03-25T02:20:50;4.80;;;3.40;;
76336;SDS011;65157;50.082;18.178;2024-03-25T02:23:17;5.60;;;2.90;;
76336;SDS011;65157;50.082;18.178;2024-03-25T02:25:54;4.80;;;3.40;;
76336;SDS011;65157;50.082;18.178;2024-03-25T02:28:20;5.20;;;3.30;;
76336;SDS011;65157;50.082;18.178;2024-03-25T02:30:47;4.90;;;2.90;;
76336;SDS011;65157;50.082;18.178;2024-03-25T02:33:14;3.10;;;2.80;;
76336;SDS011;65157;50.082;18.178;2024-03-25T02:35:42;3.00;;;2.70;;
76336;SDS011;65157;50.082;18.178;2024-03-25T02:38:10;3.90;;;2.80;;
76336;SDS011;65157;50.082;18.178;2024-03-25T02:40:37;3.70;;;3.00;;
76336;SDS011;65157;50.082;18.178;2024-03-25T02:43:04;2.30;;;2.10;;
76336;SDS011;65157;50.082;18.178;2024-03-25T02:45:31;3.80;;;3.20;;
76336;SDS011;65157;50.082;18.178;2024-03-25T02:47:57;3.60;;;2.60;;
76336;SDS011;65157;50.082;18.178;2024-03-25T02:50:23;3.40;;;2.30;;
76336;SDS011;65157;50.082;18.178;2024-03-25T02:52:50;3.00;;;2.70;;
76336;SDS011;65157;50.082;18.178;2024-03-25T02:55:16;3.80;;;2.80;;
76336;SDS011;65157;50.082;18.178;2024-03-25T02:57:43;2.60;;;2.40;;
76336;SDS011;65157;50.082;18.178;2024-03-25T03:00:09;2.70;;;2.50;;
76336;SDS011;65157;50.082;18.178;2024-03-25T03:02:36;2.90;;;2.60;;
76336;SDS011;65157;50.082;18.178;2024-03-25T03:05:02;3.40;;;3.10;;
76336;SDS011;65157;50.082;18.178;2024-03-25T03:07:29;3.00;;;2.80;;
76336;SDS011;65157;50.082;18.178;2024-03-25T03:09:55;4.30;;;3.30;;
76336;SDS011;65157;50.082;18.178;2024-03-25T03:12:22;2.90;;;2.70;;
76336;SDS011;65157;50.082;18.178;2024-03-25T03:14:48;2.00;;;1.90;;
76336;SDS011;65157;50.082;18.178;2024-03-25T03:17:15;3.30;;;3.10;;
76336;SDS011;65157;50.082;18.178;2024-03-25T03:19:41;2.70;;;2.50;;
76336;SDS011;65157;50.082;18.178;2024-03-25T03:22:07;2.60;;;2.40;;
76336;SDS011;65157;50.082;18.178;2024-03-25T03:24:34;3.20;;;3.00;;
76336;SDS011;65157;50.082;18.178;2024-03-25T03:27:00;2.20;;;2.00;;
76336;SDS011;65157;50.082;18.178;2024-03-25T03:29:27;2.70;;;2.50;;
76336;SDS011;65157;50.082;18.178;2024-03-25T03:31:53;3.90;;;3.10;;
76336;SDS011;65157;50.082;18.178;2024-03-25T03:34:20;3.30;;;3.00;;
76336;SDS011;65157;50.082;18.178;2024-03-25T03:36:46;3.10;;;2.60;;
76336;SDS011;65157;50.082;18.178;2024-03-25T03:39:13;2.20;;;2.00;;
76336;SDS011;65157;50.082;18.178;2024-03-25T03:41:39;3.20;;;2.90;;
76336;SDS011;65157;50.082;18.178;2024-03-25T03:44:05;2.40;;;2.30;;
76336;SDS011;65157;50.082;18.178;2024-03-25T03:46:32;2.80;;;2.60;;
76336;SDS011;65157;50.082;18.178;2024-03-25T03:48:58;3.30;;;3.10;;
76336;SDS011;65157;50.082;18.178;2024-03-25T03:51:25;3.20;;;3.00;;
76336;SDS011;65157;50.082;18.178;2024-03-25T03:53:51;2.90;;;2.50;;
76336;SDS011;65157;50.082;18.178;2024-03-25T03:56:18;4.60;;;4.20;;
76336;SDS011;65157;50.082;18.178;2024-03-25T03:58:44;3.70;;;3.20;;
76336;SDS011;65157;50.082;18.178;2024-03-25T04:01:17;2.90;;;2.60;;
76336;SDS011;65157;50.082;18.178;2024-03-25T04:03:44;3.20;;;3.00;;
76336;SDS011;65157;50.082;18.178;2024-03-25T04:06:13;3.60;;;2.30;;
76336;SDS011;65157;50.082;18.178;2024-03-25T04:08:39;4.70;;;3.00;;
76336;SDS011;65157;50.082;18.178;2024-03-25T04:11:06;3.90;;;3.50;;
76336;SDS011;65157;50.082;18.178;2024-03-25T04:13:33;4.20;;;3.80;;
76336;SDS011;65157;50.082;18.178;2024-03-25T04:16:01;2.90;;;2.60;;
76336;SDS011;65157;50.082;18.178;2024-03-25T04:18:28;3.30;;;3.00;;
76336;SDS011;65157;50.082;18.178;2024-03-25T04:20:55;3.50;;;3.20;;
76336;SDS011;65157;50.082;18.178;2024-03-25T04:23:21;3.30;;;3.00;;
76336;SDS011;65157;50.082;18.178;2024-03-25T04:25:48;3.10;;;2.80;;
76336;SDS011;65157;50.082;18.178;2024-03-25T04:28:14;2.60;;;2.40;;
76336;SDS011;65157;50.082;18.178;2024-03-25T04:30:41;3.20;;;2.90;;
76336;SDS011;65157;50.082;18.178;2024-03-25T04:33:07;2.50;;;2.30;;
76336;SDS011;65157;50.082;18.178;2024-03-25T04:35:34;2.10;;;2.00;;
76336;SDS011;65157;50.082;18.178;2024-03-25T04:38:00;3.00;;;2.70;;
76336;SDS011;65157;50.082;18.178;2024-03-25T04:40:27;2.30;;;2.10;;
76336;SDS011;65157;50.082;18.178;2024-03-25T04:42:54;3.30;;;3.00;;
76336;SDS011;65157;50.082;18.178;2024-03-25T04:45:20;3.00;;;2.80;;
76336;SDS011;65157;50.082;18.178;2024-03-25T04:47:46;2.60;;;2.40;;
76336;SDS011;65157;50.082;18.178;2024-03-25T04:50:13;3.50;;;3.20;;
76336;SDS011;65157;50.082;18.178;2024-03-25T04:52:39;2.90;;;2.60;;
76336;SDS011;65157;50.082;18.178;2024-03-25T04:55:06;2.70;;;2.50;;
76336;SDS011;65157;50.082;18.178;2024-03-25T04:57:32;3.00;;;2.50;;
76336;SDS011;65157;50.082;18.178;2024-03-25T04:59:59;2.10;;;2.00;;
76336;SDS011;65157;50.082;18.178;2024-03-25T05:02:25;3.30;;;2.90;;
76336;SDS011;65157;50.082;18.178;2024-03-25T05:04:51;3.30;;;3.10;;
76336;SDS011;65157;50.082;18.178;2024-03-25T05:07:18;2.60;;;2.40;;
76336;SDS011;65157;50.082;18.178;2024-03-25T05:09:44;3.50;;;3.30;;
76336;SDS011;65157;50.082;18.178;2024-03-25T05:12:11;4.20;;;3.70;;
76336;SDS011;65157;50.082;18.178;2024-03-25T05:14:37;2.60;;;2.40;;
76336;SDS011;65157;50.082;18.178;2024-03-25T05:17:04;2.70;;;2.50;;
76336;SDS011;65157;50.082;18.178;2024-03-25T05:19:30;3.60;;;3.30;;
76336;SDS011;65157;50.082;18.178;2024-03-25T05:21:57;3.00;;;2.70;;
76336;SDS011;65157;50.082;18.178;2024-03-25T05:24:23;3.10;;;2.80;;
76336;SDS011;65157;50.082;18.178;2024-03-25T05:26:49;2.30;;;2.10;;
76336;SDS011;65157;50.082;18.178;2024-03-25T05:29:16;3.10;;;2.90;;
76336;SDS011;65157;50.082;18.178;2024-03-25T05:34:21;2.50;;;1.90;;
76336;SDS011;65157;50.082;18.178;2024-03-25T05:36:48;3.60;;;3.20;;
76336;SDS011;65157;50.082;18.178;2024-03-25T05:39:14;3.40;;;2.80;;
76336;SDS011;65157;50.082;18.178;2024-03-25T05:41:41;2.90;;;2.70;;
76336;SDS011;65157;50.082;18.178;2024-03-25T05:44:07;3.20;;;2.90;;
76336;SDS011;65157;50.082;18.178;2024-03-25T05:46:34;4.00;;;2.10;;
76336;SDS011;65157;50.082;18.178;2024-03-25T05:49:03;3.70;;;2.90;;
76336;SDS011;65157;50.082;18.178;2024-03-25T05:51:30;3.10;;;2.70;;
76336;SDS011;65157;50.082;18.178;2024-03-25T05:56:23;3.40;;;3.10;;
76336;SDS011;65157;50.082;18.178;2024-03-25T05:58:50;6.00;;;3.40;;
76336;SDS011;65157;50.082;18.178;2024-03-25T06:01:16;2.90;;;2.60;;
76336;SDS011;65157;50.082;18.178;2024-03-25T06:03:42;3.40;;;3.10;;
76336;SDS011;65157;50.082;18.178;2024-03-25T06:06:09;3.60;;;3.30;;
76336;SDS011;65157;50.082;18.178;2024-03-25T06:08:35;4.30;;;3.90;;
76336;SDS011;65157;50.082;18.178;2024-03-25T06:11:02;5.10;;;4.20;;
76336;SDS011;65157;50.082;18.178;2024-03-25T06:13:28;5.20;;;3.00;;
76336;SDS011;65157;50.082;18.178;2024-03-25T06:15:55;5.80;;;4.40;;
76336;SDS011;65157;50.082;18.178;2024-03-25T06:18:21;2.50;;;2.30;;
76336;SDS011;65157;50.082;18.178;2024-03-25T06:20:48;4.90;;;4.10;;
76336;SDS011;65157;50.082;18.178;2024-03-25T06:25:55;2.90;;;2.50;;
76336;SDS011;65157;50.082;18.178;2024-03-25T06:28:25;4.80;;;3.00;;
76336;SDS011;65157;50.082;18.178;2024-03-25T06:30:51;2.10;;;1.90;;
76336;SDS011;65157;50.082;18.178;2024-03-25T06:33:18;1.90;;;1.80;;
76336;SDS011;65157;50.082;18.178;2024-03-25T06:35:44;3.40;;;3.00;;
76336;SDS011;65157;50.082;18.178;2024-03-25T06:38:11;4.10;;;3.00;;
76336;SDS011;65157;50.082;18.178;2024-03-25T06:40:37;2.90;;;2.50;;
76336;SDS011;65157;50.082;18.178;2024-03-25T06:43:04;5.50;;;3.40;;
76336;SDS011;65157;50.082;18.178;2024-03-25T06:45:31;3.80;;;3.10;;
76336;SDS011;65157;50.082;18.178;2024-03-25T06:47:57;3.70;;;3.10;;
76336;SDS011;65157;50.082;18.178;2024-03-25T06:50:24;2.70;;;2.50;;
76336;SDS011;65157;50.082;18.178;2024-03-25T06:52:51;4.10;;;3.10;;
76336;SDS011;65157;50.082;18.178;2024-03-25T06:55:17;2.80;;;2.70;;
76336;SDS011;65157;50.082;18.178;2024-03-25T06:57:43;3.00;;;1.80;;
76336;SDS011;65157;50.082;18.178;2024-03-25T07:00:10;2.30;;;2.00;;
76336;SDS011;65157;50.082;18.178;2024-03-25T07:02:37;2.70;;;2.50;;
76336;SDS011;65157;50.082;18.178;2024-03-25T07:05:03;3.70;;;2.90;;
76336;SDS011;65157;50.082;18.178;2024-03-25T07:07:30;6.10;;;3.40;;
76336;SDS011;65157;50.082;18.178;2024-03-25T07:09:57;6.30;;;3.70;;
76336;SDS011;65157;50.082;18.178;2024-03-25T07:12:23;4.60;;;3.40;;
76336;SDS011;65157;50.082;18.178;2024-03-25T07:14:49;5.10;;;3.60;;
76336;SDS011;65157;50.082;18.178;2024-03-25T07:17:16;2.60;;;2.00;;
76336;SDS011;65157;50.082;18.178;2024-03-25T07:19:42;2.30;;;2.10;;
76336;SDS011;65157;50.082;18.178;2024-03-25T07:22:09;6.50;;;4.20;;
76336;SDS011;65157;50.082;18.178;2024-03-25T07:24:35;4.90;;;3.20;;
76336;SDS011;65157;50.082;18.178;2024-03-25T07:27:02;2.80;;;2.50;;
76336;SDS011;65157;50.082;18.178;2024-03-25T07:29:28;5.10;;;4.10;;
76336;SDS011;65157;50.082;18.178;2024-03-25T07:31:55;5.70;;;3.50;;
76336;SDS011;65157;50.082;18.178;2024-03-25T07:34:21;6.70;;;5.70;;
76336;SDS011;65157;50.082;18.178;2024-03-25T07:36:47;5.20;;;4.40;;
76336;SDS011;65157;50.082;18.178;2024-03-25T07:39:14;4.30;;;3.90;;
76336;SDS011;65157;50.082;18.178;2024-03-25T07:41:40;3.40;;;3.10;;
76336;SDS011;65157;50.082;18.178;2024-03-25T07:44:08;3.00;;;2.50;;
76336;SDS011;65157;50.082;18.178;2024-03-25T07:46:35;3.50;;;3.30;;
76336;SDS011;65157;50.082;18.178;2024-03-25T07:49:01;3.10;;;2.90;;
76336;SDS011;65157;50.082;18.178;2024-03-25T07:51:28;3.20;;;3.00;;
76336;SDS011;65157;50.082;18.178;2024-03-25T07:53:54;3.60;;;3.40;;
76336;SDS011;65157;50.082;18.178;2024-03-25T07:56:21;2.40;;;2.30;;
76336;SDS011;65157;50.082;18.178;2024-03-25T07:58:47;2.70;;;2.50;;
76336;SDS011;65157;50.082;18.178;2024-03-25T08:01:13;3.40;;;3.20;;
76336;SDS011;65157;50.082;18.178;2024-03-25T08:03:40;3.30;;;3.10;;
76336;SDS011;65157;50.082;18.178;2024-03-25T08:06:06;2.80;;;2.60;;
76336;SDS011;65157;50.082;18.178;2024-03-25T08:08:32;2.80;;;2.70;;
76336;SDS011;65157;50.082;18.178;2024-03-25T08:10:59;2.60;;;2.50;;
76336;SDS011;65157;50.082;18.178;2024-03-25T08:13:25;3.80;;;3.60;;
76336;SDS011;65157;50.082;18.178;2024-03-25T08:15:52;1.60;;;1.60;;
76336;SDS011;65157;50.082;18.178;2024-03-25T08:18:18;1.50;;;1.50;;
76336;SDS011;65157;50.082;18.178;2024-03-25T08:20:45;1.80;;;1.80;;
76336;SDS011;65157;50.082;18.178;2024-03-25T08:23:11;2.00;;;1.90;;
76336;SDS011;65157;50.082;18.178;2024-03-25T08:25:37;1.70;;;1.60;;
76336;SDS011;65157;50.082;18.178;2024-03-25T08:28:04;1.00;;;1.00;;
76336;SDS011;65157;50.082;18.178;2024-03-25T08:30:30;1.60;;;1.50;;
76336;SDS011;65157;50.082;18.178;2024-03-25T08:32:57;2.00;;;1.90;;
76336;SDS011;65157;50.082;18.178;2024-03-25T08:35:23;1.80;;;1.70;;
76336;SDS011;65157;50.082;18.178;2024-03-25T08:37:50;2.50;;;2.10;;
76336;SDS011;65157;50.082;18.178;2024-03-25T08:40:16;2.20;;;2.10;;
76336;SDS011;65157;50.082;18.178;2024-03-25T08:42:43;1.90;;;1.90;;
76336;SDS011;65157;50.082;18.178;2024-03-25T08:45:09;2.40;;;2.20;;
76336;SDS011;65157;50.082;18.178;2024-03-25T08:47:36;2.70;;;2.50;;
76336;SDS011;65157;50.082;18.178;2024-03-25T08:50:02;2.10;;;1.60;;
76336;SDS011;65157;50.082;18.178;2024-03-25T08:52:29;2.70;;;2.50;;
76336;SDS011;65157;50.082;18.178;2024-03-25T08:54:55;2.40;;;2.20;;
76336;SDS011;65157;50.082;18.178;2024-03-25T08:57:22;3.20;;;2.60;;
76336;SDS011;65157;50.082;18.178;2024-03-25T08:59:48;5.80;;;3.60;;
76336;SDS011;65157;50.082;18.178;2024-03-25T09:02:15;8.00;;;4.10;;
76336;SDS011;65157;50.082;18.178;2024-03-25T09:04:41;4.80;;;3.00;;
76336;SDS011;65157;50.082;18.178;2024-03-25T09:07:07;4.20;;;3.10;;
76336;SDS011;65157;50.082;18.178;2024-03-25T09:09:34;2.00;;;1.80;;
76336;SDS011;65157;50.082;18.178;2024-03-25T09:12:00;1.90;;;1.70;;
76336;SDS011;65157;50.082;18.178;2024-03-25T09:14:27;1.30;;;1.20;;
76336;SDS011;65157;50.082;18.178;2024-03-25T09:16:53;1.50;;;1.40;;
76336;SDS011;65157;50.082;18.178;2024-03-25T09:19:24;1.80;;;1.50;;
76336;SDS011;65157;50.082;18.178;2024-03-25T09:21:50;2.10;;;1.80;;
76336;SDS011;65157;50.082;18.178;2024-03-25T09:24:16;3.00;;;2.80;;
76336;SDS011;65157;50.082;18.178;2024-03-25T09:26:43;2.10;;;2.00;;
76336;SDS011;65157;50.082;18.178;2024-03-25T09:29:09;2.70;;;2.50;;
76336;SDS011;65157;50.082;18.178;2024-03-25T09:31:36;2.50;;;2.30;;
76336;SDS011;65157;50.082;18.178;2024-03-25T09:34:02;1.60;;;1.50;;
76336;SDS011;65157;50.082;18.178;2024-03-25T09:36:29;1.30;;;1.30;;
76336;SDS011;65157;50.082;18.178;2024-03-25T09:38:55;3.40;;;3.10;;
76336;SDS011;65157;50.082;18.178;2024-03-25T09:41:22;3.50;;;2.50;;
76336;SDS011;65157;50.082;18.178;2024-03-25T09:46:20;2.90;;;2.80;;
76336;SDS011;65157;50.082;18.178;2024-03-25T09:48:48;3.00;;;2.70;;
76336;SDS011;65157;50.082;18.178;2024-03-25T09:51:14;2.60;;;2.40;;
76336;SDS011;65157;50.082;18.178;2024-03-25T09:53:41;3.00;;;2.60;;
76336;SDS011;65157;50.082;18.178;2024-03-25T09:56:08;3.00;;;2.70;;
76336;SDS011;65157;50.082;18.178;2024-03-25T09:58:36;2.90;;;2.70;;
76336;SDS011;65157;50.082;18.178;2024-03-25T10:05:56;2.10;;;2.00;;
76336;SDS011;65157;50.082;18.178;2024-03-25T10:08:23;1.30;;;1.30;;
76336;SDS011;65157;50.082;18.178;2024-03-25T10:10:49;1.60;;;1.40;;
76336;SDS011;65157;50.082;18.178;2024-03-25T10:13:16;1.40;;;1.40;;
76336;SDS011;65157;50.082;18.178;2024-03-25T10:15:42;1.50;;;1.40;;
76336;SDS011;65157;50.082;18.178;2024-03-25T10:18:11;2.10;;;2.00;;
76336;SDS011;65157;50.082;18.178;2024-03-25T10:20:37;1.50;;;1.50;;
76336;SDS011;65157;50.082;18.178;2024-03-25T10:23:04;1.50;;;1.40;;
76336;SDS011;65157;50.082;18.178;2024-03-25T10:25:30;1.70;;;1.70;;
76336;SDS011;65157;50.082;18.178;2024-03-25T10:27:58;1.70;;;1.70;;
76336;SDS011;65157;50.082;18.178;2024-03-25T10:30:28;2.00;;;1.90;;
76336;SDS011;65157;50.082;18.178;2024-03-25T10:32:58;1.10;;;1.10;;
76336;SDS011;65157;50.082;18.178;2024-03-25T10:35:30;1.60;;;1.50;;
76336;SDS011;65157;50.082;18.178;2024-03-25T10:38:01;1.80;;;1.80;;
76336;SDS011;65157;50.082;18.178;2024-03-25T10:40:33;1.90;;;1.90;;
76336;SDS011;65157;50.082;18.178;2024-03-25T10:43:04;1.60;;;1.60;;
76336;SDS011;65157;50.082;18.178;2024-03-25T10:45:31;2.30;;;2.20;;
76336;SDS011;65157;50.082;18.178;2024-03-25T10:48:09;1.50;;;1.50;;
76336;SDS011;65157;50.082;18.178;2024-03-25T10:53:27;3.10;;;3.00;;
76336;SDS011;65157;50.082;18.178;2024-03-25T10:55:55;2.80;;;2.70;;
76336;SDS011;65157;50.082;18.178;2024-03-25T10:58:23;2.40;;;2.20;;
76336;SDS011;65157;50.082;18.178;2024-03-25T11:03:17;2.80;;;2.70;;
76336;SDS011;65157;50.082;18.178;2024-03-25T11:05:45;3.30;;;3.10;;
76336;SDS011;65157;50.082;18.178;2024-03-25T11:08:12;2.20;;;2.10;;
76336;SDS011;65157;50.082;18.178;2024-03-25T11:10:39;3.00;;;2.80;;
76336;SDS011;65157;50.082;18.178;2024-03-25T11:13:10;3.00;;;2.80;;
76336;SDS011;65157;50.082;18.178;2024-03-25T11:15:40;2.30;;;2.20;;
76336;SDS011;65157;50.082;18.178;2024-03-25T11:18:10;1.50;;;1.50;;
76336;SDS011;65157;50.082;18.178;2024-03-25T11:20:40;2.10;;;1.90;;
76336;SDS011;65157;50.082;18.178;2024-03-25T11:23:10;1.40;;;1.30;;
76336;SDS011;65157;50.082;18.178;2024-03-25T11:25:38;2.00;;;1.80;;
76336;SDS011;65157;50.082;18.178;2024-03-25T11:28:05;1.30;;;1.30;;
76336;SDS011;65157;50.082;18.178;2024-03-25T11:30:34;2.50;;;2.30;;
76336;SDS011;65157;50.082;18.178;2024-03-25T11:33:02;1.70;;;1.60;;
76336;SDS011;65157;50.082;18.178;2024-03-25T11:35:29;1.50;;;1.30;;
76336;SDS011;65157;50.082;18.178;2024-03-25T11:37:56;1.90;;;1.80;;
76336;SDS011;65157;50.082;18.178;2024-03-25T11:40:22;2.20;;;1.90;;
76336;SDS011;65157;50.082;18.178;2024-03-25T11:42:49;2.80;;;1.80;;
76336;SDS011;65157;50.082;18.178;2024-03-25T11:45:19;1.60;;;1.50;;
76336;SDS011;65157;50.082;18.178;2024-03-25T11:47:47;1.60;;;1.60;;
76336;SDS011;65157;50.082;18.178;2024-03-25T11:50:15;1.60;;;1.50;;
76336;SDS011;65157;50.082;18.178;2024-03-25T11:52:43;1.40;;;1.40;;
76336;SDS011;65157;50.082;18.178;2024-03-25T11:55:10;1.10;;;1.10;;
76336;SDS011;65157;50.082;18.178;2024-03-25T11:57:37;2.00;;;1.90;;
76336;SDS011;65157;50.082;18.178;2024-03-25T12:00:04;1.30;;;1.30;;
76336;SDS011;65157;50.082;18.178;2024-03-25T12:02:33;1.90;;;1.80;;
76336;SDS011;65157;50.082;18.178;2024-03-25T12:05:00;1.60;;;1.60;;
76336;SDS011;65157;50.082;18.178;2024-03-25T12:07:26;3.20;;;2.70;;
76336;SDS011;65157;50.082;18.178;2024-03-25T12:09:53;2.30;;;2.10;;
76336;SDS011;65157;50.082;18.178;2024-03-25T12:12:19;1.10;;;1.10;;
76336;SDS011;65157;50.082;18.178;2024-03-25T12:14:46;2.40;;;2.30;;
76336;SDS011;65157;50.082;18.178;2024-03-25T12:17:12;2.80;;;2.70;;
76336;SDS011;65157;50.082;18.178;2024-03-25T12:19:39;1.70;;;1.50;;
76336;SDS011;65157;50.082;18.178;2024-03-25T12:24:32;3.00;;;2.10;;
76336;SDS011;65157;50.082;18.178;2024-03-25T12:26:59;1.80;;;1.70;;
76336;SDS011;65157;50.082;18.178;2024-03-25T12:29:26;1.40;;;1.30;;
76336;SDS011;65157;50.082;18.178;2024-03-25T12:31:53;1.60;;;1.50;;
76336;SDS011;65157;50.082;18.178;2024-03-25T12:34:21;2.00;;;1.80;;
76336;SDS011;65157;50.082;18.178;2024-03-25T12:36:50;2.10;;;2.00;;
76336;SDS011;65157;50.082;18.178;2024-03-25T12:39:17;1.70;;;1.60;;
76336;SDS011;65157;50.082;18.178;2024-03-25T12:41:44;2.10;;;2.00;;
76336;SDS011;65157;50.082;18.178;2024-03-25T12:44:14;2.90;;;2.80;;
76336;SDS011;65157;50.082;18.178;2024-03-25T12:46:40;1.50;;;1.40;;
76336;SDS011;65157;50.082;18.178;2024-03-25T12:49:06;2.60;;;2.40;;
76336;SDS011;65157;50.082;18.178;2024-03-25T12:51:33;2.00;;;1.80;;
76336;SDS011;65157;50.082;18.178;2024-03-25T12:53:59;1.90;;;1.80;;
76336;SDS011;65157;50.082;18.178;2024-03-25T12:56:26;2.10;;;2.00;;
76336;SDS011;65157;50.082;18.178;2024-03-25T12:58:52;1.70;;;1.60;;
76336;SDS011;65157;50.082;18.178;2024-03-25T13:01:19;1.40;;;1.30;;
76336;SDS011;65157;50.082;18.178;2024-03-25T13:03:45;2.20;;;2.10;;
76336;SDS011;65157;50.082;18.178;2024-03-25T13:06:12;1.90;;;1.80;;
76336;SDS011;65157;50.082;18.178;2024-03-25T13:08:38;1.60;;;1.50;;
76336;SDS011;65157;50.082;18.178;2024-03-25T13:11:05;1.90;;;1.80;;
76336;SDS011;65157;50.082;18.178;2024-03-25T13:13:31;2.90;;;2.80;;
76336;SDS011;65157;50.082;18.178;2024-03-25T13:15:57;2.10;;;1.90;;
76336;SDS011;65157;50.082;18.178;2024-03-25T13:18:24;2.80;;;2.60;;
76336;SDS011;65157;50.082;18.178;2024-03-25T13:20:50;2.80;;;2.60;;
76336;SDS011;65157;50.082;18.178;2024-03-25T13:23:17;2.10;;;2.00;;
76336;SDS011;65157;50.082;18.178;2024-03-25T13:25:43;2.40;;;1.80;;
76336;SDS011;65157;50.082;18.178;2024-03-25T13:28:10;2.20;;;2.10;;
76336;SDS011;65157;50.082;18.178;2024-03-25T13:30:36;2.40;;;2.20;;
76336;SDS011;65157;50.082;18.178;2024-03-25T13:33:02;2.60;;;2.30;;
76336;SDS011;65157;50.082;18.178;2024-03-25T13:37:56;1.80;;;1.70;;
76336;SDS011;65157;50.082;18.178;2024-03-25T13:40:22;2.00;;;1.90;;
76336;SDS011;65157;50.082;18.178;2024-03-25T13:42:49;3.40;;;2.80;;
76336;SDS011;65157;50.082;18.178;2024-03-25T13:45:15;2.30;;;2.20;;
76336;SDS011;65157;50.082;18.178;2024-03-25T13:47:41;2.00;;;1.70;;
76336;SDS011;65157;50.082;18.178;2024-03-25T13:50:08;1.90;;;1.70;;
76336;SDS011;65157;50.082;18.178;2024-03-25T13:52:35;1.70;;;1.60;;
76336;SDS011;65157;50.082;18.178;2024-03-25T13:55:02;3.50;;;3.40;;
76336;SDS011;65157;50.082;18.178;2024-03-25T13:57:28;2.50;;;2.30;;
76336;SDS011;65157;50.082;18.178;2024-03-25T13:59:55;2.10;;;1.80;;
76336;SDS011;65157;50.082;18.178;2024-03-25T14:02:22;3.10;;;2.80;;
76336;SDS011;65157;50.082;18.178;2024-03-25T14:04:49;2.70;;;2.40;;
76336;SDS011;65157;50.082;18.178;2024-03-25T14:07:16;3.80;;;2.90;;
76336;SDS011;65157;50.082;18.178;2024-03-25T14:09:42;3.90;;;3.40;;
76336;SDS011;65157;50.082;18.178;2024-03-25T14:12:11;5.10;;;3.00;;
76336;SDS011;65157;50.082;18.178;2024-03-25T14:14:37;4.40;;;3.60;;
76336;SDS011;65157;50.082;18.178;2024-03-25T14:17:04;3.90;;;3.40;;
76336;SDS011;65157;50.082;18.178;2024-03-25T14:19:31;9.30;;;6.40;;
76336;SDS011;65157;50.082;18.178;2024-03-25T14:21:57;18.20;;;9.70;;
76336;SDS011;65157;50.082;18.178;2024-03-25T14:24:26;23.40;;;11.90;;
76336;SDS011;65157;50.082;18.178;2024-03-25T14:26:53;7.10;;;5.20;;
76336;SDS011;65157;50.082;18.178;2024-03-25T14:29:19;8.30;;;6.00;;
76336;SDS011;65157;50.082;18.178;2024-03-25T14:31:46;8.30;;;5.50;;
76336;SDS011;65157;50.082;18.178;2024-03-25T14:34:12;15.30;;;8.00;;
76336;SDS011;65157;50.082;18.178;2024-03-25T14:36:39;7.80;;;5.00;;
76336;SDS011;65157;50.082;18.178;2024-03-25T14:39:05;6.90;;;6.20;;
76336;SDS011;65157;50.082;18.178;2024-03-25T14:41:39;5.30;;;4.80;;
76336;SDS011;65157;50.082;18.178;2024-03-25T14:44:06;2.80;;;2.60;;
76336;SDS011;65157;50.082;18.178;2024-03-25T14:46:32;3.90;;;3.60;;
76336;SDS011;65157;50.082;18.178;2024-03-25T14:48:59;5.10;;;4.70;;
76336;SDS011;65157;50.082;18.178;2024-03-25T14:51:25;2.90;;;2.70;;
76336;SDS011;65157;50.082;18.178;2024-03-25T14:53:52;4.60;;;3.70;;
76336;SDS011;65157;50.082;18.178;2024-03-25T15:01:11;4.20;;;3.80;;
76336;SDS011;65157;50.082;18.178;2024-03-25T15:03:39;3.80;;;3.10;;
76336;SDS011;65157;50.082;18.178;2024-03-25T15:06:06;3.80;;;2.80;;
76336;SDS011;65157;50.082;18.178;2024-03-25T15:08:32;4.20;;;3.80;;